Time;durP1;ratioP1;P1;durP2;ratioP2;P2;SDS_P1;SDS_P2;PMS_P1;PMS_P2;Temp;Humidity;BMP_temperature;BMP_pressure;BME280_temperature;BME280_humidity;BME280_pressure;Samples;Min_cycle;Max_cycle;Signal;HPM_P1;HPM_P2
2023/10/13 00:00:25;;;;;;;0.40;0.40;;;;;;;18.32;48.68;96885.47;29394;272;64013;-58
2023/10/13 00:01:04;;;;;;;0.40;0.40;;;;;;;18.33;48.49;96892.56;29394;253;64009;-57
2023/10/13 00:01:38;;;;;;;0.40;0.40;;;;;;;18.32;48.29;96897.25;29395;203;63009;-71
2023/10/13 00:02:10;;;;;;;0.40;0.40;;;;;;;18.31;48.37;96894.84;29395;245;63004;-71
2023/10/13 00:02:43;;;;;;;0.40;0.40;;;;;;;18.30;48.52;96893.25;29395;221;63009;-72
2023/10/13 00:03:18;;;;;;;0.40;0.40;;;;;;;18.30;48.50;96887.75;29395;202;63004;-59
2023/10/13 00:03:54;;;;;;;0.40;0.40;;;;;;;18.30;48.49;96893.25;29395;235;63009;-71
2023/10/13 00:04:26;;;;;;;0.40;0.40;;;;;;;18.31;48.65;96894.84;29395;216;63004;-72
2023/10/13 00:04:57;;;;;;;0.40;0.40;;;;;;;18.30;48.54;96882.25;29395;206;63008;-58
2023/10/13 00:05:30;;;;;;;0.40;0.40;;;;;;;18.30;48.60;96882.25;29394;212;64009;-74
2023/10/13 00:06:03;;;;;;;0.40;0.40;;;;;;;18.30;47.94;96876.75;29395;213;63009;-72
2023/10/13 00:06:34;;;;;;;0.40;0.40;;;;;;;18.32;48.27;96886.28;29394;197;64009;-73
2023/10/13 00:07:09;;;;;;;0.30;0.30;;;;;;;18.33;47.88;96876.87;29395;253;63009;-71
2023/10/13 00:07:43;;;;;;;0.40;0.40;;;;;;;18.33;48.01;96884.31;29395;259;63017;-72
2023/10/13 00:08:17;;;;;;;0.40;0.40;;;;;;;18.32;47.92;96880.78;29395;196;63009;-58
2023/10/13 00:08:48;;;;;;;0.40;0.40;;;;;;;18.33;48.06;96887.06;29395;197;63005;-74
2023/10/13 00:09:25;;;;;;;0.40;0.40;;;;;;;18.31;48.06;96876.44;29395;252;63009;-58
2023/10/13 00:09:56;;;;;;;0.40;0.40;;;;;;;18.31;47.79;96883.87;29395;218;63014;-72
2023/10/13 00:10:29;;;;;;;0.40;0.40;;;;;;;18.30;48.42;96882.25;29395;209;63009;-74
2023/10/13 00:11:00;;;;;;;0.40;0.40;;;;;;;18.30;48.23;96882.25;29395;197;63004;-71
2023/10/13 00:11:31;;;;;;;0.40;0.40;;;;;;;18.29;48.48;96883.41;29395;202;63016;-71
2023/10/13 00:12:04;;;;;;;0.30;0.30;;;;;;;18.28;48.18;96879.06;29394;220;64008;-72
2023/10/13 00:12:37;;;;;;;0.40;0.40;;;;;;;18.28;48.11;96882.59;29395;234;63008;-73
2023/10/13 00:13:15;;;;;;;0.40;0.40;;;;;;;18.28;48.00;96879.06;29395;229;63005;-72
2023/10/13 00:13:55;;;;;;;0.40;0.40;;;;;;;18.27;48.15;96882.94;29395;210;63009;-58
2023/10/13 00:14:37;;;;;;;0.40;0.40;;;;;;;18.26;48.08;96886.84;29439;240;63005;-73
2023/10/13 00:15:13;;;;;;;0.40;0.40;;;;;;;18.23;48.51;96877.31;29395;202;63009;-57
2023/10/13 00:15:58;;;;;;;0.40;0.40;;;;;;;18.23;48.41;96882.03;29395;233;63005;-58
2023/10/13 00:16:30;;;;;;;0.40;0.40;;;;;;;18.24;48.51;96883.63;29395;281;63009;-73
2023/10/13 00:17:04;;;;;;;0.40;0.40;;;;;;;18.22;48.08;96874.94;29395;225;63015;-71
2023/10/13 00:17:38;;;;;;;0.40;0.40;;;;;;;18.23;47.79;96879.28;29394;206;64013;-57
2023/10/13 00:18:12;;;;;;;0.40;0.40;;;;;;;18.22;47.72;96874.94;29395;218;63004;-72
2023/10/13 00:18:44;;;;;;;0.40;0.40;;;;;;;18.21;48.02;96874.13;29395;224;63009;-67
2023/10/13 00:19:15;;;;;;;0.40;0.40;;;;;;;18.23;47.97;96882.03;29394;215;64004;-58
2023/10/13 00:19:46;;;;;;;1.52;1.52;;;;;;;18.21;48.00;96868.63;29395;220;63008;-73
2023/10/13 00:20:34;;;;;;;0.50;0.50;;;;;;;18.22;47.83;96874.94;29395;201;63016;-71
2023/10/13 00:21:13;;;;;;;0.40;0.40;;;;;;;18.23;48.34;96873.78;29395;228;63009;-71
2023/10/13 00:21:45;;;;;;;0.40;0.40;;;;;;;18.26;47.90;96868.41;29395;231;63005;-70
2023/10/13 00:22:22;;;;;;;0.40;0.40;;;;;;;18.27;47.50;96878.25;29395;235;63009;-58
2023/10/13 00:22:56;;;;;;;0.40;0.40;;;;;;;18.28;47.71;96879.06;29394;221;64008;-58
2023/10/13 00:23:32;;;;;;;0.40;0.40;;;;;;;18.26;47.98;96870.34;29395;258;63009;-70
2023/10/13 00:24:06;;;;;;;0.40;0.40;;;;;;;18.25;47.87;96871.50;29395;215;63004;-60
2023/10/13 00:24:42;;;;;;;0.40;0.40;;;;;;;18.25;47.94;96877.00;29395;284;63009;-71
2023/10/13 00:25:26;;;;;;;0.40;0.40;;;;;;;18.25;47.37;96868.75;29395;232;63004;-70
2023/10/13 00:25:58;;;;;;;0.40;0.40;;;;;;;18.25;47.84;96875.03;29395;238;63009;-69
2023/10/13 00:26:30;;;;;;;0.40;0.40;;;;;;;18.29;47.21;96875.16;29395;232;63015;-70
2023/10/13 00:27:04;;;;;;;0.40;0.40;;;;;;;18.28;47.46;96870.81;29395;196;63024;-68
2023/10/13 00:27:41;;;;;;;0.40;0.40;;;;;;;18.29;47.35;96869.66;29395;225;63004;-74
2023/10/13 00:28:22;;;;;;;0.45;0.45;;;;;;;18.28;47.29;96873.56;29394;203;64014;-68
2023/10/13 00:29:16;;;;;;;0.40;0.40;;;;;;;18.26;47.10;96864.84;29395;208;63015;-72
2023/10/13 00:29:50;;;;;;;0.40;0.40;;;;;;;18.26;47.22;96867.59;29394;217;64013;-68
2023/10/13 00:30:33;;;;;;;0.40;0.40;;;;;;;18.25;47.30;96863.25;29395;197;63005;-69
2023/10/13 00:31:10;;;;;;;1.62;1.62;;;;;;;18.25;47.71;96863.25;29395;199;63009;-69
2023/10/13 00:31:46;;;;;;;0.40;0.40;;;;;;;18.25;47.19;96861.31;29395;233;63004;-57
2023/10/13 00:32:26;;;;;;;0.40;0.40;;;;;;;18.26;47.33;96864.84;29395;241;63009;-72
2023/10/13 00:32:59;;;;;;;0.60;0.60;;;;;;;18.25;47.48;96872.28;29395;229;63017;-71
2023/10/13 00:33:32;;;;;;;0.40;0.40;;;;;;;18.23;47.18;96865.53;29395;211;63009;-58
2023/10/13 00:34:25;;;;;;;0.40;0.40;;;;;;;18.19;47.44;96865.44;29395;232;63004;-60
2023/10/13 00:34:56;;;;;;;0.30;0.30;;;;;;;18.15;47.69;96867.25;29394;203;64006;-72
2023/10/13 00:35:35;;;;;;;0.30;0.30;;;;;;;18.13;47.76;96864.03;29395;272;63005;-57
2023/10/13 00:36:19;;;;;;;0.30;0.30;;;;;;;18.10;48.00;96867.47;29417;215;63009;-58
2023/10/13 00:37:45;;;;;;;0.40;0.40;;;;;;;18.04;48.34;96871.56;29395;199;63009;-71
2023/10/13 00:38:18;;;;;;;0.40;0.40;;;;;;;18.02;48.41;96866.44;29395;202;63005;-74
2023/10/13 00:38:51;;;;;;;0.40;0.40;;;;;;;18.02;48.27;96866.44;29395;217;63009;-70
2023/10/13 00:39:23;;;;;;;0.40;0.40;;;;;;;18.01;47.90;96866.78;29395;244;63004;-59
2023/10/13 00:39:56;;;;;;;0.40;0.40;;;;;;;18.03;47.97;96865.28;29395;223;63009;-70
2023/10/13 00:40:42;;;;;;;0.40;0.40;;;;;;;18.02;47.93;96862.88;29394;230;64009;-71
2023/10/13 00:41:15;;;;;;;0.37;0.37;;;;;;;18.00;48.15;96860.50;29395;203;63009;-59
2023/10/13 00:41:52;;;;;;;0.40;0.40;;;;;;;17.99;48.07;96867.13;29395;295;63004;-57
2023/10/13 00:42:50;;;;;;;0.40;0.40;;;;;;;17.98;48.09;96860.03;29395;238;63009;-58
2023/10/13 00:44:08;;;;;;;0.40;0.40;;;;;;;17.96;48.42;96867.81;29395;224;63009;-72
2023/10/13 00:44:44;;;;;;;0.40;0.40;;;;;;;17.95;48.27;96865.41;29395;197;63005;-59
2023/10/13 00:45:17;;;;;;;0.40;0.40;;;;;;;17.95;48.84;96860.72;29395;237;63024;-71
2023/10/13 00:46:07;;;;;;;0.40;0.40;;;;;;;17.93;48.73;96863.00;29394;199;64009;-58
2023/10/13 00:46:44;;;;;;;0.40;0.40;;;;;;;17.95;48.56;96863.47;29416;213;64013;-58
2023/10/13 00:48:13;;;;;;;0.40;0.40;;;;;;;17.96;48.21;96858.78;29395;208;63009;-72
2023/10/13 00:48:54;;;;;;;0.30;0.30;;;;;;;17.96;48.53;96862.31;29395;221;63004;-58
2023/10/13 00:49:26;;;;;;;0.40;0.40;;;;;;;17.96;48.54;96865.06;29395;254;63008;-71
2023/10/13 00:49:57;;;;;;;0.40;0.40;;;;;;;17.96;48.41;96865.06;29395;204;63005;-71
2023/10/13 00:50:30;;;;;;;0.40;0.40;;;;;;;17.96;48.66;96864.25;29395;232;63009;-71
2023/10/13 00:51:07;;;;;;;0.40;0.40;;;;;;;17.96;48.29;96862.31;29395;253;63005;-57
2023/10/13 00:51:46;;;;;;;0.40;0.40;;;;;;;17.97;48.30;96863.94;29395;239;63009;-57
2023/10/13 00:52:19;;;;;;;0.40;0.40;;;;;;;17.98;48.23;96864.72;29394;208;64009;-72
2023/10/13 00:52:51;;;;;;;0.40;0.40;;;;;;;17.96;48.25;96865.06;29395;197;63009;-71
2023/10/13 00:53:25;;;;;;;0.40;0.40;;;;;;;17.94;48.12;96870.09;29394;236;64005;-58
2023/10/13 00:53:57;;;;;;;0.30;0.30;;;;;;;17.94;48.42;96861.06;29395;252;63009;-58
2023/10/13 00:54:29;;;;;;;0.40;0.40;;;;;;;17.94;48.43;96856.38;29395;197;63000;-70
2023/10/13 00:55:02;;;;;;;0.40;0.40;;;;;;;17.96;48.39;96867.00;29395;218;63009;-58
2023/10/13 00:55:34;;;;;;;0.40;0.40;;;;;;;17.97;47.94;96861.19;29395;226;63004;-70
2023/10/13 00:56:18;;;;;;;0.40;0.40;;;;;;;17.96;47.94;96864.25;29395;220;63009;-57
2023/10/13 00:57:04;;;;;;;0.40;0.40;;;;;;;17.95;48.39;96860.72;29417;240;63004;-69
2023/10/13 00:57:37;;;;;;;0.40;0.40;;;;;;;17.94;48.01;96861.06;29394;244;64014;-73
2023/10/13 00:58:12;;;;;;;0.40;0.40;;;;;;;17.92;48.34;96861.41;29395;211;63005;-72
2023/10/13 00:58:46;;;;;;;0.30;0.30;;;;;;;17.93;48.36;96867.69;29395;225;63025;-56
2023/10/13 00:59:23;;;;;;;0.40;0.40;;;;;;;17.95;48.60;96863.47;29395;273;63005;-56
2023/10/13 00:59:58;;;;;;;0.40;0.40;;;;;;;17.94;48.16;96870.09;29395;299;63009;-58
2023/10/13 01:00:46;;;;;;;0.40;0.40;;;;;;;17.94;48.29;96863.81;29395;232;63005;-72
2023/10/13 01:01:21;;;;;;;0.40;0.40;;;;;;;17.93;48.45;96857.50;29395;231;63009;-58
2023/10/13 01:01:55;;;;;;;0.40;0.40;;;;;;;17.92;47.98;96858.66;29395;222;63004;-71
2023/10/13 01:02:38;;;;;;;0.30;0.30;;;;;;;17.92;48.57;96855.91;29395;233;63009;-73
2023/10/13 01:03:12;;;;;;;0.40;0.40;;;;;;;17.91;48.75;96859.78;29394;205;64009;-73
2023/10/13 01:04:04;;;;;;;0.40;0.40;;;;;;;17.89;48.56;96864.81;29395;229;63009;-70
2023/10/13 01:04:36;;;;;;;0.40;0.40;;;;;;;17.88;48.33;96860.47;29395;214;63017;-58
2023/10/13 01:05:09;;;;;;;0.40;0.40;;;;;;;17.88;48.73;96865.97;29395;239;63009;-58
2023/10/13 01:05:45;;;;;;;0.40;0.40;;;;;;;17.91;48.80;96868.03;29395;242;63005;-57
2023/10/13 01:06:19;;;;;;;0.40;0.40;;;;;;;17.91;48.77;96876.25;29395;198;63009;-72
2023/10/13 01:06:51;;;;;;;0.40;0.40;;;;;;;17.90;48.75;96869.16;29395;212;63005;-71
2023/10/13 01:07:22;;;;;;;0.40;0.40;;;;;;;17.90;48.78;96863.69;29395;222;63009;-58
2023/10/13 01:07:56;;;;;;;0.40;0.40;;;;;;;17.89;48.28;96864.81;29395;229;63005;-71
2023/10/13 01:08:37;;;;;;;0.40;0.40;;;;;;;17.89;48.53;96864.81;29394;240;64013;-73
2023/10/13 01:09:18;;;;;;;;;;;;;;;17.88;48.58;96865.97;29996;983;6000;-70
2023/10/13 01:09:52;;;;;;;0.40;0.40;;;;;;;17.88;48.58;96863.22;29400;235;63004;-72
2023/10/13 01:10:27;;;;;;;0.40;0.40;;;;;;;17.87;48.73;96867.09;29395;238;63009;-71
2023/10/13 01:10:59;;;;;;;0.40;0.40;;;;;;;17.85;48.56;96861.16;29395;206;63004;-72
2023/10/13 01:11:31;;;;;;;0.40;0.40;;;;;;;17.85;48.63;96872.12;29395;246;63019;-72
2023/10/13 01:12:04;;;;;;;0.40;0.40;;;;;;;17.83;48.80;96871.66;29395;203;63004;-70
2023/10/13 01:12:36;;;;;;;0.40;0.40;;;;;;;17.81;48.80;96876.69;29395;233;63005;-72
2023/10/13 01:13:07;;;;;;;0.40;0.40;;;;;;;17.81;49.07;96873.16;29395;200;63005;-69
2023/10/13 01:13:41;;;;;;;0.40;0.40;;;;;;;17.81;49.16;96865.72;29394;236;64014;-73
2023/10/13 01:14:17;;;;;;;0.40;0.40;;;;;;;17.82;49.24;96872.00;29395;224;63005;-70
2023/10/13 01:14:50;;;;;;;0.40;0.40;;;;;;;17.83;48.95;96871.66;29395;243;63009;-70
2023/10/13 01:15:22;;;;;;;0.40;0.40;;;;;;;17.83;49.46;96874.41;29395;232;63005;-72
2023/10/13 01:15:53;;;;;;;0.40;0.40;;;;;;;17.81;48.94;96865.72;29394;224;64013;-70
2023/10/13 01:16:26;;;;;;;0.40;0.40;;;;;;;17.81;49.25;96873.16;29395;205;63005;-71
2023/10/13 01:16:58;;;;;;;0.40;0.40;;;;;;;17.77;48.82;96864.78;29395;203;63009;-70
2023/10/13 01:17:31;;;;;;;0.40;0.40;;;;;;;17.77;48.75;96864.78;29395;207;63004;-71
2023/10/13 01:18:13;;;;;;;0.40;0.40;;;;;;;17.78;49.03;96865.59;29395;202;63009;-71
2023/10/13 01:18:48;;;;;;;0.40;0.40;;;;;;;17.77;49.43;96864.78;29395;245;63010;-71
2023/10/13 01:19:27;;;;;;;0.40;0.40;;;;;;;17.78;48.90;96871.88;29395;226;63008;-68
2023/10/13 01:19:59;;;;;;;0.40;0.40;;;;;;;17.78;49.13;96860.09;29395;253;63005;-71
2023/10/13 01:20:33;;;;;;;0.40;0.40;;;;;;;17.78;49.25;96865.59;29395;205;63009;-70
2023/10/13 01:21:07;;;;;;;0.30;0.30;;;;;;;17.76;49.64;96863.19;29394;215;64009;-68
2023/10/13 01:21:43;;;;;;;0.40;0.40;;;;;;;17.75;48.89;96861.59;29395;234;63009;-70
2023/10/13 01:22:15;;;;;;;0.40;0.40;;;;;;;17.74;49.45;96860.78;29395;235;63009;-71
2023/10/13 01:22:55;;;;;;;0.40;0.40;;;;;;;17.75;49.12;96861.59;29395;227;63009;-72
2023/10/13 01:23:28;;;;;;;0.40;0.40;;;;;;;17.75;48.91;96856.09;29417;242;63005;-71
2023/10/13 01:24:01;;;;;;;0.40;0.40;;;;;;;17.75;48.90;96862.38;29373;249;63023;-73
2023/10/13 01:24:36;;;;;;;0.40;0.40;;;;;;;17.73;49.12;96853.69;29395;222;63014;-72
2023/10/13 01:25:13;;;;;;;0.40;0.40;;;;;;;17.75;49.18;96861.59;29395;222;63009;-70
2023/10/13 01:25:47;;;;;;;0.40;0.40;;;;;;;17.78;49.19;96866.38;29395;213;63004;-68
2023/10/13 01:26:26;;;;;;;0.40;0.40;;;;;;;17.81;48.48;96862.97;29394;217;64013;-71
2023/10/13 01:27:07;;;;;;;0.40;0.40;;;;;;;17.79;48.87;96857.03;29395;230;63016;-71
2023/10/13 01:27:38;;;;;;;0.40;0.40;;;;;;;17.78;48.64;96855.41;29417;215;63009;-73
2023/10/13 01:28:16;;;;;;;0.40;0.40;;;;;;;17.76;48.96;96854.94;29395;238;63005;-71
2023/10/13 01:28:48;;;;;;;0.40;0.40;;;;;;;17.73;48.58;96858.38;29395;288;63005;-71
2023/10/13 01:29:26;;;;;;;0.40;0.40;;;;;;;17.72;48.91;96848.53;29395;202;63005;-71
2023/10/13 01:30:05;;;;;;;0.40;0.40;;;;;;;17.70;48.71;96854.34;29395;213;63023;-73
2023/10/13 01:30:39;;;;;;;0.40;0.40;;;;;;;17.68;48.96;96855.84;29395;280;63000;-72
2023/10/13 01:31:24;;;;;;;0.40;0.40;;;;;;;17.67;49.23;96857.00;29395;289;63025;-72
2023/10/13 01:31:57;;;;;;;0.40;0.40;;;;;;;17.64;49.32;96854.91;29394;197;64009;-72
2023/10/13 01:32:45;;;;;;;0.40;0.40;;;;;;;17.59;49.36;96846.88;29395;248;63009;-69
2023/10/13 01:33:26;;;;;;;0.40;0.40;;;;;;;17.59;49.48;96852.38;29395;231;63004;-68
2023/10/13 01:34:00;;;;;;;0.40;0.40;;;;;;;17.58;49.53;96850.78;29395;266;63008;-72
2023/10/13 01:34:33;;;;;;;0.40;0.40;;;;;;;17.57;49.53;96854.66;29395;257;63004;-71
2023/10/13 01:35:07;;;;;;;0.40;0.40;;;;;;;17.57;49.39;96849.16;29395;240;63009;-71
2023/10/13 01:35:47;;;;;;;0.40;0.40;;;;;;;17.54;50.16;96850.66;29395;204;63017;-71
2023/10/13 01:36:19;;;;;;;0.40;0.40;;;;;;;17.53;50.05;96856.47;29395;207;63009;-72
2023/10/13 01:36:53;;;;;;;0.40;0.40;;;;;;;17.51;49.92;96854.06;29395;237;63005;-74
2023/10/13 01:37:24;;;;;;;0.40;0.40;;;;;;;17.50;50.10;96848.91;29394;197;64013;-72
2023/10/13 01:37:57;;;;;;;0.40;0.40;;;;;;;17.50;50.06;96848.91;29395;233;63005;-71
2023/10/13 01:38:33;;;;;;;0.43;0.43;;;;;;;17.50;49.91;96849.72;29395;208;63009;-70
2023/10/13 01:39:05;;;;;;;0.40;0.40;;;;;;;17.52;49.77;96849.38;29395;202;63009;-72
2023/10/13 01:39:37;;;;;;;0.40;0.40;;;;;;;17.52;49.66;96850.19;29395;221;63009;-72
2023/10/13 01:40:10;;;;;;;0.40;0.40;;;;;;;17.52;49.73;96849.38;29395;197;63004;-70
2023/10/13 01:40:43;;;;;;;0.40;0.40;;;;;;;17.52;49.67;96846.63;29395;206;63009;-71
2023/10/13 01:41:15;;;;;;;0.40;0.40;;;;;;;17.52;49.82;96847.44;29395;238;63015;-71
2023/10/13 01:41:53;;;;;;;0.40;0.40;;;;;;;17.52;49.76;96847.44;29395;219;63009;-71
2023/10/13 01:42:25;;;;;;;0.40;0.40;;;;;;;17.53;50.21;96851.00;29394;243;64009;-74
2023/10/13 01:42:59;;;;;;;0.40;0.40;;;;;;;17.54;50.03;96845.16;29394;215;64014;-59
2023/10/13 01:43:30;;;;;;;0.40;0.40;;;;;;;17.54;50.21;96847.91;29395;202;63005;-75
2023/10/13 01:44:01;;;;;;;0.40;0.40;;;;;;;17.54;49.77;96855.34;29395;216;63009;-58
2023/10/13 01:44:35;;;;;;;0.40;0.40;;;;;;;17.53;50.16;96849.03;29395;266;63005;-73
2023/10/13 01:45:08;;;;;;;0.40;0.40;;;;;;;17.53;49.96;96848.25;29395;216;63005;-58
2023/10/13 01:45:49;;;;;;;0.40;0.40;;;;;;;17.52;50.18;96843.91;29395;239;63005;-68
2023/10/13 01:46:23;;;;;;;0.40;0.40;;;;;;;17.50;49.91;96848.91;29395;258;63009;-68
2023/10/13 01:46:54;;;;;;;0.40;0.40;;;;;;;17.50;49.80;96848.91;29395;215;63004;-74
2023/10/13 01:47:27;;;;;;;0.40;0.40;;;;;;;17.49;50.50;96850.84;29395;264;63009;-69
2023/10/13 01:47:59;;;;;;;0.50;0.50;;;;;;;17.50;50.04;96843.44;29394;225;64009;-58
2023/10/13 01:48:38;;;;;;;0.40;0.40;;;;;;;17.51;49.92;96850.53;29395;287;63008;-71
2023/10/13 01:49:10;;;;;;;0.40;0.40;;;;;;;17.51;50.35;96850.53;29394;217;64008;-72
2023/10/13 01:49:43;;;;;;;0.40;0.40;;;;;;;17.52;50.06;96843.91;29395;224;63009;-70
2023/10/13 01:50:20;;;;;;;0.40;0.40;;;;;;;17.53;50.04;96859.22;29395;210;63005;-73
2023/10/13 01:50:59;;;;;;;0.40;0.40;;;;;;;17.53;49.90;96842.75;29395;224;63009;-69
2023/10/13 01:51:31;;;;;;;0.50;0.50;;;;;;;17.57;49.95;96854.66;29395;209;63005;-74
2023/10/13 01:52:03;;;;;;;0.43;0.43;;;;;;;17.57;49.83;96849.97;29395;222;63009;-71
2023/10/13 01:52:35;;;;;;;0.40;0.40;;;;;;;17.59;49.86;96846.88;29395;222;63005;-71
2023/10/13 01:53:17;;;;;;;0.40;0.40;;;;;;;17.57;50.12;96849.16;29395;246;63009;-71
2023/10/13 01:53:56;;;;;;;0.40;0.40;;;;;;;17.55;50.15;96851.44;29395;229;63004;-73
2023/10/13 01:54:28;;;;;;;0.40;0.40;;;;;;;17.54;50.22;96849.84;29394;207;64013;-71
2023/10/13 01:55:04;;;;;;;0.40;0.40;;;;;;;17.54;50.27;96860.81;29395;215;63004;-75
2023/10/13 01:55:44;;;;;;;0.40;0.40;;;;;;;17.54;49.67;96847.09;29395;233;63009;-72
2023/10/13 01:56:15;;;;;;;0.40;0.40;;;;;;;17.52;50.00;96847.44;29395;210;63014;-74
2023/10/13 01:56:48;;;;;;;0.40;0.40;;;;;;;17.53;49.91;96845.50;29395;218;63008;-71
2023/10/13 01:57:25;;;;;;;0.40;0.40;;;;;;;17.52;50.10;96841.16;29395;195;63005;-70
2023/10/13 01:57:57;;;;;;;0.40;0.40;;;;;;;17.53;49.83;96848.25;29395;237;63009;-71
2023/10/13 01:58:33;;;;;;;0.40;0.40;;;;;;;17.51;50.61;96851.31;29395;260;63005;-70
2023/10/13 01:59:09;;;;;;;0.40;0.40;;;;;;;17.51;50.17;96850.53;29395;274;63009;-69
2023/10/13 01:59:43;;;;;;;0.40;0.40;;;;;;;17.50;50.39;96852.47;29394;203;64009;-73
2023/10/13 02:00:19;;;;;;;0.40;0.40;;;;;;;17.50;50.44;96840.69;29395;225;63009;-72
2023/10/13 02:00:50;;;;;;;0.40;0.40;;;;;;;17.51;50.41;96845.03;29395;216;63005;-68
2023/10/13 02:01:27;;;;;;;0.40;0.40;;;;;;;17.52;50.19;96852.13;29395;270;63009;-71
2023/10/13 02:02:00;;;;;;;0.40;0.40;;;;;;;17.51;50.39;96848.56;29395;196;63004;-71
2023/10/13 02:02:33;;;;;;;0.40;0.40;;;;;;;17.51;50.20;96840.34;29395;202;63009;-71
2023/10/13 02:03:16;;;;;;;0.40;0.40;;;;;;;17.49;49.97;96831.66;29395;221;63017;-71
2023/10/13 02:03:49;;;;;;;0.40;0.40;;;;;;;17.48;50.46;96848.44;29395;197;63008;-70
2023/10/13 02:04:21;;;;;;;0.40;0.40;;;;;;;17.47;50.25;96838.63;29395;242;63014;-73
2023/10/13 02:04:57;;;;;;;0.40;0.40;;;;;;;17.48;50.09;96840.22;29394;211;64014;-72
2023/10/13 02:05:35;;;;;;;0.40;0.40;;;;;;;17.49;50.11;96842.62;29395;268;63005;-72
2023/10/13 02:06:10;;;;;;;0.40;0.40;;;;;;;17.48;49.78;96846.50;29395;242;63009;-74
2023/10/13 02:06:43;;;;;;;0.40;0.40;;;;;;;17.49;50.31;96836.34;29395;243;63009;-72
2023/10/13 02:07:17;;;;;;;0.40;0.40;;;;;;;17.49;49.83;96848.13;29395;225;63013;-71
2023/10/13 02:07:53;;;;;;;0.40;0.40;;;;;;;17.51;50.00;96845.03;29395;211;63005;-57
2023/10/13 02:08:25;;;;;;;0.40;0.40;;;;;;;17.51;50.32;96842.28;29395;214;63009;-71
2023/10/13 02:08:57;;;;;;;0.30;0.30;;;;;;;17.52;50.36;96835.66;29395;257;63004;-71
2023/10/13 02:09:36;;;;;;;0.40;0.40;;;;;;;17.51;50.05;96837.59;29395;203;63009;-71
2023/10/13 02:10:12;;;;;;;0.40;0.40;;;;;;;17.52;49.82;96838.41;29394;224;64009;-71
2023/10/13 02:10:44;;;;;;;0.40;0.40;;;;;;;17.52;50.47;96832.91;29395;204;63009;-72
2023/10/13 02:11:18;;;;;;;0.40;0.40;;;;;;;17.50;50.84;96837.94;29395;246;63004;-71
2023/10/13 02:11:54;;;;;;;0.40;0.40;;;;;;;17.50;50.20;96832.47;29395;224;63008;-71
2023/10/13 02:12:35;;;;;;;0.40;0.40;;;;;;;17.50;50.26;96833.25;29395;244;63005;-70
2023/10/13 02:13:15;;;;;;;0.40;0.40;;;;;;;17.51;50.21;96834.06;29395;215;63009;-69
2023/10/13 02:13:51;;;;;;;0.40;0.40;;;;;;;17.52;50.28;96835.66;29417;222;63005;-71
2023/10/13 02:14:23;;;;;;;0.40;0.40;;;;;;;17.52;50.04;96832.91;29395;238;63009;-71
2023/10/13 02:14:54;;;;;;;0.40;0.40;;;;;;;17.53;50.02;96831.78;29395;279;63005;-71
2023/10/13 02:15:26;;;;;;;0.40;0.40;;;;;;;17.51;50.48;96831.31;29394;196;64013;-71
2023/10/13 02:16:04;;;;;;;0.40;0.40;;;;;;;17.50;50.52;96826.97;29395;210;63005;-71
2023/10/13 02:16:36;;;;;;;0.40;0.40;;;;;;;17.50;50.04;96833.25;29395;234;63009;-71
2023/10/13 02:17:13;;;;;;;0.40;0.40;;;;;;;17.49;50.27;96831.66;29395;224;63010;-71
2023/10/13 02:17:45;;;;;;;0.40;0.40;;;;;;;17.49;49.90;96826.16;29395;234;63009;-72
2023/10/13 02:19:15;;;;;;;0.40;0.40;;;;;;;17.49;49.97;96828.09;29395;202;63017;-73
2023/10/13 02:19:47;;;;;;;0.40;0.40;;;;;;;17.48;50.65;96827.31;29395;245;63005;-69
2023/10/13 02:20:22;;;;;;;0.40;0.40;;;;;;;17.47;50.06;96817.47;29395;251;63009;-68
2023/10/13 02:20:55;;;;;;;0.40;0.40;;;;;;;17.52;49.66;96825.50;29394;239;64000;-71
2023/10/13 02:21:31;;;;;;;0.40;0.40;;;;;;;17.53;49.76;96818.06;29395;197;63009;-72
2023/10/13 02:22:04;;;;;;;0.35;0.35;;;;;;;17.52;49.71;96821.94;29394;196;64009;-71
2023/10/13 02:23:59;;;;;;;0.40;0.40;;;;;;;17.52;49.84;96813.72;88174;221;64004;-73
2023/10/13 02:24:31;;;;;;;0.40;0.40;;;;;;;17.53;49.90;96818.88;29394;203;64009;-70
2023/10/13 02:25:07;;;;;;;0.40;0.40;;;;;;;17.52;49.73;96816.47;29395;268;63005;-70
2023/10/13 02:25:45;;;;;;;0.40;0.40;;;;;;;17.53;49.83;96815.31;29395;197;63009;-67
2023/10/13 02:26:30;;;;;;;0.40;0.40;;;;;;;17.53;49.75;96807.09;29395;213;63005;-70
2023/10/13 02:27:03;;;;;;;0.40;0.40;;;;;;;17.51;49.77;96820.34;29395;203;63024;-71
2023/10/13 02:27:41;;;;;;;0.40;0.40;;;;;;;17.50;49.79;96816.81;29394;212;64009;-69
2023/10/13 02:28:21;;;;;;;0.40;0.40;;;;;;;17.49;49.68;96811.66;29395;218;63009;-70
2023/10/13 02:28:56;;;;;;;0.40;0.40;;;;;;;17.48;49.94;96807.31;29439;259;63004;-69
2023/10/13 02:29:29;;;;;;;0.40;0.40;;;;;;;17.49;49.78;96808.91;29395;196;63009;-73
2023/10/13 02:30:00;;;;;;;0.40;0.40;;;;;;;17.50;49.84;96810.50;29395;262;63004;-73
2023/10/13 02:30:38;;;;;;;0.40;0.40;;;;;;;17.50;49.93;96805.03;29395;240;63008;-74
2023/10/13 02:31:11;;;;;;;0.40;0.40;;;;;;;17.50;50.07;96810.50;29395;235;63001;-72
2023/10/13 02:31:54;;;;;;;0.40;0.40;;;;;;;17.50;49.74;96805.81;29395;212;63009;-70
2023/10/13 02:32:29;;;;;;;0.40;0.40;;;;;;;17.51;49.82;96801.94;29395;212;63005;-68
2023/10/13 02:33:05;;;;;;;0.40;0.40;;;;;;;17.56;49.75;96803.66;29394;213;64013;-71
2023/10/13 02:33:44;;;;;;;0.40;0.40;;;;;;;17.58;49.55;96801.41;29395;196;63005;-57
2023/10/13 02:34:19;;;;;;;0.40;0.40;;;;;;;17.60;49.41;96804.59;29395;200;63009;-57
2023/10/13 02:34:50;;;;;;;0.40;0.40;;;;;;;17.63;49.29;96793.75;29394;196;64009;-71
2023/10/13 02:35:30;;;;;;;0.40;0.40;;;;;;;17.62;49.17;96803.12;29395;198;63009;-71
2023/10/13 02:36:05;;;;;;;0.40;0.40;;;;;;;17.64;49.20;96794.56;29395;237;63004;-67
2023/10/13 02:36:37;;;;;;;0.40;0.40;;;;;;;17.63;49.17;96798.44;29395;251;63008;-58
2023/10/13 02:37:09;;;;;;;0.40;0.40;;;;;;;17.64;49.20;96794.56;29395;252;63004;-69
2023/10/13 02:37:48;;;;;;;0.40;0.40;;;;;;;17.66;49.20;96792.28;29395;235;63008;-73
2023/10/13 02:38:48;;;;;;;0.40;0.40;;;;;;;17.63;49.07;96796.50;29395;286;63016;-69
2023/10/13 02:39:26;;;;;;;0.40;0.40;;;;;;;17.65;48.97;96796.19;29394;213;64009;-56
2023/10/13 02:40:00;;;;;;;0.40;0.40;;;;;;;17.65;49.19;96791.50;29394;286;64009;-70
2023/10/13 02:40:35;;;;;;;0.32;0.32;;;;;;;17.59;49.25;96800.25;29395;227;63009;-67
2023/10/13 02:41:27;;;;;;;0.40;0.40;;;;;;;17.56;49.39;96795.44;29395;197;63005;-72
2023/10/13 02:42:00;;;;;;;0.37;0.37;;;;;;;17.51;49.32;96792.91;29395;222;63009;-70
2023/10/13 02:42:32;;;;;;;0.40;0.40;;;;;;;17.48;49.58;96794.38;29395;241;63004;-70
2023/10/13 02:43:07;;;;;;;0.40;0.40;;;;;;;17.46;49.45;96790.38;29395;228;63009;-69
2023/10/13 02:43:39;;;;;;;0.30;0.30;;;;;;;17.46;49.31;96793.13;29395;208;63004;-68
2023/10/13 02:44:12;;;;;;;0.30;0.30;;;;;;;17.43;49.42;96795.41;29395;219;63008;-70
2023/10/13 02:44:46;;;;;;;0.40;0.40;;;;;;;17.43;49.64;96795.41;29395;209;63004;-71
2023/10/13 02:45:22;;;;;;;0.30;0.30;;;;;;;17.42;49.68;96793.81;29394;198;64014;-58
2023/10/13 02:45:59;;;;;;;0.40;0.40;;;;;;;17.39;49.79;96797.22;29395;212;63005;-71
2023/10/13 02:46:39;;;;;;;0.40;0.40;;;;;;;17.39;49.61;96796.41;29395;205;63009;-69
2023/10/13 02:47:13;;;;;;;0.40;0.40;;;;;;;17.38;49.99;96792.06;29439;244;63005;-69
2023/10/13 02:47:45;;;;;;;0.40;0.40;;;;;;;17.35;49.79;96790.81;29373;220;63009;-71
2023/10/13 02:48:21;;;;;;;0.40;0.40;;;;;;;17.32;49.84;96793.44;29395;199;63005;-57
2023/10/13 02:48:53;;;;;;;0.30;0.30;;;;;;;17.32;49.86;96797.00;29395;364;63009;-67
2023/10/13 02:49:31;;;;;;;0.40;0.40;;;;;;;17.33;49.84;96801.31;29394;199;64009;-59
2023/10/13 02:50:04;;;;;;;0.40;0.40;;;;;;;17.32;49.78;96793.44;29395;228;63009;-58
2023/10/13 02:50:38;;;;;;;0.40;0.40;;;;;;;17.31;49.95;96797.34;29395;208;63004;-70
2023/10/13 02:51:15;;;;;;;0.40;0.40;;;;;;;17.30;49.97;96791.03;29395;214;63009;-69
2023/10/13 02:51:46;;;;;;;0.40;0.40;;;;;;;17.31;49.99;96792.66;29395;197;63004;-68
2023/10/13 02:52:18;;;;;;;0.40;0.40;;;;;;;17.29;50.02;96788.62;29395;264;63021;-58
2023/10/13 02:52:52;;;;;;;0.40;0.40;;;;;;;17.26;50.00;96794.81;29395;266;63005;-57
2023/10/13 02:53:28;;;;;;;0.40;0.40;;;;;;;17.22;50.25;96789.19;29395;197;63009;-69
2023/10/13 02:54:02;;;;;;;0.40;0.40;;;;;;;17.22;50.13;96789.19;29395;280;63005;-72